Time;durP1;ratioP1;P1;durP2;ratioP2;P2;SDS_P1;SDS_P2;PMS_P1;PMS_P2;Temp;Humidity;BMP_temperature;BMP_pressure;BME280_temperature;BME280_humidity;BME280_pressure;Samples;Min_cycle;Max_cycle;Signal;HPM_P1;HPM_P2
2022/01/05 00:01:54;;;;;;;6.53;2.08;;;2.00;99.90;;;;;;5101964;28;20024;-81
2022/01/05 00:04:20;;;;;;;12.27;2.80;;;1.90;99.90;;;;;;5083926;28;20510;-82
2022/01/05 00:06:46;;;;;;;12.05;3.05;;;2.00;99.90;;;;;;5091320;28;20111;-82
2022/01/05 00:09:11;;;;;;;13.27;2.92;;;2.10;99.90;;;;;;5073916;28;20139;-83
2022/01/05 00:11:37;;;;;;;7.65;2.15;;;2.10;99.90;;;;;;5101986;28;20135;-81
2022/01/05 00:14:03;;;;;;;16.98;2.42;;;2.10;99.90;;;;;;5110402;28;20533;-83
2022/01/05 00:16:29;;;;;;;17.13;2.95;;;2.20;99.90;;;;;;5093084;28;20051;-83
2022/01/05 00:18:54;;;;;;;16.85;3.50;;;2.30;99.90;;;;;;5108484;28;20035;-84
2022/01/05 00:21:20;;;;;;;19.45;2.80;;;2.30;99.90;;;;;;5099292;28;20040;-83
2022/01/05 00:23:46;;;;;;;26.38;4.35;;;2.30;99.90;;;;;;5111922;28;20039;-81
2022/01/05 00:26:11;;;;;;;14.90;3.83;;;2.40;99.90;;;;;;5092173;28;20405;-82
2022/01/05 00:28:37;;;;;;;19.60;3.60;;;2.40;99.90;;;;;;5090879;28;20492;-83
2022/01/05 00:31:02;;;;;;;14.63;2.83;;;2.50;99.90;;;;;;5064061;28;20044;-81
2022/01/05 00:33:28;;;;;;;18.52;4.93;;;2.50;99.90;;;;;;5077490;28;20032;-82
2022/01/05 00:35:54;;;;;;;14.43;2.92;;;2.50;99.90;;;;;;5091547;28;20119;-82
2022/01/05 00:38:20;;;;;;;14.88;3.05;;;2.70;99.90;;;;;;5091082;28;20169;-81
2022/01/05 00:40:45;;;;;;;24.60;3.83;;;2.60;99.90;;;;;;5091117;28;20082;-81
2022/01/05 00:43:11;;;;;;;17.25;2.83;;;2.70;99.90;;;;;;5091257;28;20044;-82
2022/01/05 00:45:36;;;;;;;15.32;4.10;;;2.60;99.90;;;;;;5089887;28;20044;-82
2022/01/05 00:48:02;;;;;;;15.15;3.70;;;2.50;99.90;;;;;;5090708;28;20044;-82
2022/01/05 00:50:28;;;;;;;19.15;4.00;;;2.70;99.90;;;;;;5091152;28;20500;-81
2022/01/05 00:52:59;;;;;;;22.83;4.53;;;2.70;99.90;;;;;;5093513;28;20043;-82
2022/01/05 00:55:26;;;;;;;11.23;2.97;;;2.80;99.90;;;;;;5111273;28;20466;-80
2022/01/05 00:57:52;;;;;;;14.90;2.80;;;2.80;99.90;;;;;;5095298;28;20032;-82
2022/01/05 01:00:18;;;;;;;13.57;2.72;;;2.80;99.90;;;;;;5093531;28;20036;-83
2022/01/05 01:02:44;;;;;;;9.65;3.15;;;2.80;99.90;;;;;;5089424;28;20045;-75
2022/01/05 01:05:09;;;;;;;11.73;2.55;;;2.90;99.90;;;;;;5076228;28;20040;-81
2022/01/05 01:07:35;;;;;;;12.43;2.25;;;2.80;99.90;;;;;;5074012;28;20048;-82
2022/01/05 01:10:00;;;;;;;15.73;2.40;;;2.80;99.90;;;;;;5056906;28;20040;-82
2022/01/05 01:12:26;;;;;;;14.27;3.25;;;2.70;99.90;;;;;;5107316;28;20047;-81
2022/01/05 01:14:52;;;;;;;8.95;2.03;;;2.70;99.90;;;;;;5095019;28;20035;-82
2022/01/05 01:17:17;;;;;;;16.15;4.90;;;2.60;99.90;;;;;;5105178;28;20043;-81
2022/01/05 01:19:43;;;;;;;18.17;4.00;;;2.60;99.90;;;;;;5096803;28;20035;-79
2022/01/05 01:22:09;;;;;;;9.30;2.20;;;2.60;99.90;;;;;;5091585;28;20113;-82
2022/01/05 01:24:34;;;;;;;9.45;1.95;;;2.60;99.90;;;;;;5094695;28;20055;-81
2022/01/05 01:27:00;;;;;;;7.65;1.50;;;2.60;99.90;;;;;;5093534;28;20073;-82
2022/01/05 01:29:26;;;;;;;19.98;3.08;;;2.60;99.90;;;;;;5084904;28;20097;-82
2022/01/05 01:31:51;;;;;;;16.33;3.08;;;2.60;99.90;;;;;;5075896;28;20044;-83
2022/01/05 01:34:17;;;;;;;11.75;3.60;;;2.60;99.90;;;;;;5073543;28;20579;-81
2022/01/05 01:36:43;;;;;;;13.10;2.75;;;2.60;99.90;;;;;;5074094;28;20044;-83
2022/01/05 01:39:08;;;;;;;12.77;2.35;;;2.60;99.90;;;;;;5057718;28;20131;-80
2022/01/05 01:41:34;;;;;;;14.23;4.10;;;2.60;99.90;;;;;;5061248;28;20040;-83
2022/01/05 01:43:59;;;;;;;13.63;3.45;;;2.60;99.90;;;;;;5102102;28;20048;-82
2022/01/05 01:46:26;;;;;;;15.60;3.70;;;2.70;99.90;;;;;;5100830;28;20032;-81
2022/01/05 01:48:51;;;;;;;16.60;3.75;;;2.60;99.90;;;;;;5102172;28;20040;-81
2022/01/05 01:51:17;;;;;;;22.77;4.57;;;2.70;99.90;;;;;;5094506;28;20486;-82
2022/01/05 01:53:44;;;;;;;11.38;2.80;;;2.70;99.90;;;;;;5102451;28;20100;-77
2022/01/05 01:56:11;;;;;;;21.63;3.83;;;2.70;99.90;;;;;;5088322;28;20028;-80
2022/01/05 01:58:37;;;;;;;13.95;3.10;;;2.70;99.90;;;;;;5103655;28;20437;-75
2022/01/05 02:01:03;;;;;;;29.05;6.13;;;2.80;99.90;;;;;;5082273;28;20079;-83
2022/01/05 02:03:29;;;;;;;13.18;2.15;;;2.90;99.90;;;;;;5091193;28;20039;-82
2022/01/05 02:05:55;;;;;;;20.30;4.82;;;2.90;99.90;;;;;;5091267;28;20048;-83
2022/01/05 02:08:21;;;;;;;12.63;4.57;;;2.90;99.90;;;;;;5091212;28;20040;-82
2022/01/05 02:10:48;;;;;;;18.77;3.63;;;2.90;99.90;;;;;;5090989;28;20036;-82
2022/01/05 02:13:13;;;;;;;13.13;4.07;;;2.90;99.90;;;;;;5089921;28;20095;-74
2022/01/05 02:15:41;;;;;;;18.60;3.33;;;2.90;99.90;;;;;;5051885;28;20080;-83
2022/01/05 02:20:33;;;;;;;15.13;4.15;;;2.90;99.90;;;;;;5070818;28;20443;-83
2022/01/05 02:22:59;;;;;;;14.98;3.53;;;3.00;99.90;;;;;;5087203;28;20543;-81
2022/01/05 02:25:25;;;;;;;12.77;4.18;;;3.00;99.90;;;;;;5089996;28;20044;-83
2022/01/05 02:27:54;;;;;;;14.27;3.83;;;3.00;99.90;;;;;;5090260;28;20040;-81
2022/01/05 02:30:23;;;;;;;18.60;4.57;;;3.10;99.90;;;;;;5087109;28;20386;-82
2022/01/05 02:32:50;;;;;;;22.30;5.55;;;3.00;99.90;;;;;;5090065;28;20104;-83
2022/01/05 02:35:15;;;;;;;20.52;5.32;;;3.10;99.90;;;;;;5090097;28;20032;-82
2022/01/05 02:37:43;;;;;;;16.30;4.03;;;3.00;99.90;;;;;;5073455;28;20092;-82
2022/01/05 02:40:14;;;;;;;27.42;3.28;;;3.00;99.90;;;;;;5078412;28;20118;-82
2022/01/05 02:42:41;;;;;;;19.48;5.47;;;3.10;99.90;;;;;;5095672;28;20089;-82
2022/01/05 02:45:07;;;;;;;21.90;6.13;;;3.10;99.90;;;;;;5072481;28;20041;-83
2022/01/05 02:47:33;;;;;;;13.68;2.38;;;3.10;99.90;;;;;;5073281;28;20044;-82
2022/01/05 02:50:00;;;;;;;18.17;3.05;;;3.20;99.90;;;;;;5092528;28;20409;-82
2022/01/05 02:52:26;;;;;;;18.25;3.90;;;3.20;99.90;;;;;;5074473;28;20044;-83
2022/01/05 02:54:52;;;;;;;23.13;5.55;;;3.30;99.90;;;;;;5093399;28;20063;-84
2022/01/05 02:57:17;;;;;;;19.17;3.92;;;3.30;99.90;;;;;;5081169;28;20098;-83
2022/01/05 02:59:43;;;;;;;19.23;3.63;;;3.30;99.90;;;;;;5087926;28;20520;-82
2022/01/05 03:02:09;;;;;;;21.70;4.55;;;3.50;99.90;;;;;;5093561;28;20132;-81
2022/01/05 03:04:35;;;;;;;21.95;3.38;;;3.50;99.90;;;;;;5092956;28;20044;-82
2022/01/05 03:07:00;;;;;;;16.52;4.13;;;3.60;99.90;;;;;;5092878;28;20040;-83
2022/01/05 03:09:26;;;;;;;16.17;3.25;;;3.60;99.90;;;;;;5074545;28;20055;-82
2022/01/05 03:11:52;;;;;;;18.67;4.07;;;3.60;99.90;;;;;;5091120;28;20039;-84
2022/01/05 03:14:19;;;;;;;18.40;3.65;;;3.60;99.90;;;;;;5073931;28;20124;-81
2022/01/05 03:16:44;;;;;;;19.05;4.78;;;3.80;99.90;;;;;;5092163;28;20044;-82
2022/01/05 03:19:10;;;;;;;18.45;3.65;;;3.80;99.90;;;;;;5080566;28;20043;-83
2022/01/05 03:21:35;;;;;;;18.27;4.43;;;3.90;99.90;;;;;;5072075;28;20044;-82
2022/01/05 03:24:01;;;;;;;14.35;2.42;;;3.90;99.90;;;;;;5072328;28;20502;-80
2022/01/05 03:26:27;;;;;;;14.70;4.07;;;3.80;99.90;;;;;;5053998;28;20119;-82
2022/01/05 03:28:53;;;;;;;18.10;3.10;;;3.80;99.90;;;;;;5081122;28;20189;-81
2022/01/05 03:31:18;;;;;;;17.52;4.25;;;3.80;99.90;;;;;;5056553;28;20045;-82
2022/01/05 03:33:44;;;;;;;16.85;4.28;;;3.80;99.90;;;;;;5071253;28;20084;-80
2022/01/05 03:36:10;;;;;;;13.23;2.53;;;3.80;99.90;;;;;;5092306;28;20047;-82
2022/01/05 03:38:36;;;;;;;11.35;2.83;;;3.80;99.90;;;;;;5092227;28;20124;-81
2022/01/05 03:41:01;;;;;;;12.30;2.30;;;4.00;99.90;;;;;;5092156;28;20481;-83
2022/01/05 03:43:27;;;;;;;11.82;3.17;;;3.80;99.90;;;;;;5089788;28;20052;-81
2022/01/05 03:45:53;;;;;;;16.73;3.58;;;3.80;99.90;;;;;;5072093;28;20040;-81
2022/01/05 03:48:19;;;;;;;9.10;2.13;;;3.70;99.90;;;;;;5089335;28;20057;-81
2022/01/05 03:50:45;;;;;;;17.65;3.67;;;3.70;99.90;;;;;;5092388;28;20048;-83
2022/01/05 03:53:12;;;;;;;11.05;3.78;;;3.70;99.90;;;;;;5092444;28;20050;-82
2022/01/05 03:55:39;;;;;;;10.63;3.17;;;3.60;99.90;;;;;;5091930;28;20043;-82
2022/01/05 03:58:05;;;;;;;8.55;1.80;;;3.60;99.90;;;;;;5091276;28;20119;-84
2022/01/05 04:00:33;;;;;;;11.88;2.78;;;3.60;99.90;;;;;;5080463;28;20044;-82
2022/01/05 04:03:00;;;;;;;17.60;3.53;;;3.60;99.90;;;;;;5068369;28;20090;-81
2022/01/05 04:05:26;;;;;;;17.98;2.40;;;3.60;99.90;;;;;;5091712;28;20048;-82
2022/01/05 04:07:51;;;;;;;9.27;1.38;;;3.60;99.90;;;;;;5092041;28;20048;-82
2022/01/05 04:10:18;;;;;;;13.73;2.42;;;3.50;99.90;;;;;;5093114;28;20093;-81
2022/01/05 04:12:44;;;;;;;8.93;2.22;;;3.50;99.90;;;;;;5093129;28;20080;-78
2022/01/05 04:15:10;;;;;;;11.30;1.98;;;3.50;99.90;;;;;;5090833;28;20463;-83
2022/01/05 04:17:36;;;;;;;11.48;2.97;;;3.50;99.90;;;;;;5090850;28;20055;-82
2022/01/05 04:20:02;;;;;;;9.45;2.00;;;3.50;99.90;;;;;;5073695;28;20033;-82
2022/01/05 04:22:28;;;;;;;8.05;1.55;;;3.50;99.90;;;;;;5071233;28;20048;-82
2022/01/05 04:24:53;;;;;;;18.25;3.78;;;3.50;99.90;;;;;;5054000;28;20044;-82
2022/01/05 04:27:19;;;;;;;14.05;3.40;;;3.50;99.90;;;;;;5070870;28;20041;-83
2022/01/05 04:29:44;;;;;;;16.73;4.57;;;3.40;99.90;;;;;;5070366;28;20075;-82
2022/01/05 04:32:10;;;;;;;14.80;3.10;;;3.40;99.90;;;;;;5083937;28;20044;-83
2022/01/05 04:34:36;;;;;;;18.33;3.00;;;3.50;99.90;;;;;;5072781;28;20127;-82
2022/01/05 04:37:02;;;;;;;23.60;2.70;;;3.50;99.90;;;;;;5056472;28;20047;-83
2022/01/05 04:39:28;;;;;;;14.70;3.15;;;3.40;99.90;;;;;;5062108;28;20056;-81
2022/01/05 04:41:53;;;;;;;14.13;3.33;;;3.40;99.90;;;;;;5070933;28;20124;-83
2022/01/05 04:44:19;;;;;;;20.63;4.70;;;3.40;99.90;;;;;;5078113;28;20040;-81
2022/01/05 04:46:45;;;;;;;27.23;5.65;;;3.40;99.90;;;;;;5061379;28;20457;-82
2022/01/05 04:49:10;;;;;;;10.82;3.20;;;3.40;99.90;;;;;;5053944;28;20083;-81
2022/01/05 04:51:36;;;;;;;38.42;5.97;;;3.40;99.90;;;;;;5071045;28;20472;-84
2022/01/05 04:54:01;;;;;;;15.70;2.88;;;3.30;99.90;;;;;;5053496;28;20479;-84
2022/01/05 04:56:27;;;;;;;24.48;4.68;;;3.30;99.90;;;;;;5071491;28;20048;-81
2022/01/05 04:58:56;;;;;;;15.30;3.80;;;3.40;99.90;;;;;;5077483;28;20040;-80
2022/01/05 05:01:21;;;;;;;13.65;4.10;;;3.40;99.90;;;;;;5090980;28;20040;-81
2022/01/05 05:03:47;;;;;;;20.17;3.33;;;3.40;99.90;;;;;;5091506;28;20572;-82
2022/01/05 05:06:12;;;;;;;16.73;4.32;;;3.60;99.90;;;;;;5090398;28;20046;-81
2022/01/05 05:08:38;;;;;;;17.38;4.13;;;3.60;99.90;;;;;;5088013;28;20036;-82
2022/01/05 05:11:03;;;;;;;16.77;4.90;;;3.70;99.90;;;;;;5070939;28;20047;-81
2022/01/05 05:13:29;;;;;;;23.60;4.53;;;3.80;99.90;;;;;;5074875;28;20039;-80
2022/01/05 05:15:54;;;;;;;20.23;5.03;;;3.80;99.90;;;;;;5085934;28;20048;-81
2022/01/05 05:18:20;;;;;;;20.98;5.03;;;3.80;99.90;;;;;;5090266;28;20040;-83
2022/01/05 05:20:45;;;;;;;12.00;3.95;;;3.90;99.90;;;;;;5090740;28;20043;-81
2022/01/05 05:23:11;;;;;;;24.88;5.05;;;3.80;99.90;;;;;;5090865;28;20036;-82
2022/01/05 05:25:37;;;;;;;21.00;4.13;;;3.90;99.90;;;;;;5090436;28;20120;-81
2022/01/05 05:28:02;;;;;;;14.73;3.05;;;3.80;99.90;;;;;;5089534;28;20089;-76
2022/01/05 05:30:28;;;;;;;22.85;4.50;;;3.90;99.90;;;;;;5090278;28;20467;-82
2022/01/05 05:32:55;;;;;;;20.98;3.13;;;3.90;99.90;;;;;;5090614;28;20123;-83
2022/01/05 05:35:22;;;;;;;21.52;3.35;;;3.90;99.90;;;;;;5062067;28;20045;-82
2022/01/05 05:37:47;;;;;;;24.52;5.25;;;3.90;99.90;;;;;;5073268;28;20135;-83
2022/01/05 05:40:13;;;;;;;26.60;6.18;;;3.90;99.90;;;;;;5088450;28;20135;-81
2022/01/05 05:42:38;;;;;;;20.90;5.07;;;3.90;99.90;;;;;;5090629;28;20055;-82
2022/01/05 05:45:05;;;;;;;16.08;5.03;;;4.00;99.90;;;;;;5071257;28;20032;-81
2022/01/05 05:47:30;;;;;;;22.25;3.97;;;3.90;99.90;;;;;;5069177;28;20116;-81
2022/01/05 05:49:56;;;;;;;17.77;3.58;;;4.00;99.90;;;;;;5069617;28;20043;-82
2022/01/05 05:52:22;;;;;;;20.00;4.20;;;4.00;99.90;;;;;;5088272;28;20040;-81
2022/01/05 05:54:47;;;;;;;16.60;4.38;;;3.90;99.90;;;;;;5090038;28;20032;-82
2022/01/05 05:57:13;;;;;;;22.20;5.63;;;3.80;99.90;;;;;;5089950;28;20230;-82
2022/01/05 05:59:38;;;;;;;29.88;5.30;;;3.90;99.90;;;;;;5070965;28;20407;-82
2022/01/05 06:02:04;;;;;;;21.63;2.92;;;3.90;99.90;;;;;;5090140;28;20051;-81
2022/01/05 06:04:29;;;;;;;18.25;3.25;;;3.80;99.90;;;;;;5089906;28;20044;-80
2022/01/05 06:06:55;;;;;;;23.10;4.45;;;3.90;99.90;;;;;;5089690;28;20036;-81
2022/01/05 06:09:21;;;;;;;19.55;3.80;;;3.90;99.90;;;;;;5083791;28;20028;-81
2022/01/05 06:11:46;;;;;;;23.08;4.88;;;3.90;99.90;;;;;;5089610;28;20062;-82
2022/01/05 06:14:12;;;;;;;18.00;2.47;;;3.90;99.90;;;;;;5091384;28;20115;-80
2022/01/05 06:16:38;;;;;;;20.10;4.50;;;4.00;99.90;;;;;;5093633;28;20139;-82
2022/01/05 06:19:03;;;;;;;20.70;3.13;;;4.10;99.90;;;;;;5093026;28;20047;-80
2022/01/05 06:21:29;;;;;;;17.60;3.15;;;4.20;99.90;;;;;;5093323;28;20047;-81
2022/01/05 06:23:55;;;;;;;13.52;3.22;;;4.20;99.90;;;;;;5093913;28;20148;-80
2022/01/05 06:26:21;;;;;;;23.73;5.57;;;4.30;99.90;;;;;;5093469;28;20108;-81
2022/01/05 06:28:47;;;;;;;19.10;3.22;;;4.20;99.90;;;;;;5082988;28;20047;-82
2022/01/05 06:31:13;;;;;;;19.60;3.85;;;4.10;99.90;;;;;;5076037;28;20105;-82
2022/01/05 06:33:38;;;;;;;13.98;2.83;;;4.30;99.90;;;;;;5071922;28;20486;-81
2022/01/05 06:36:04;;;;;;;21.20;3.05;;;4.10;99.90;;;;;;5077863;28;20435;-80
2022/01/05 06:38:30;;;;;;;13.70;3.65;;;4.20;99.90;;;;;;5098761;28;20039;-80
2022/01/05 06:40:55;;;;;;;10.95;2.13;;;4.20;99.90;;;;;;5093246;28;20044;-81
2022/01/05 06:43:21;;;;;;;9.13;2.33;;;4.00;99.90;;;;;;5095477;28;20108;-81
2022/01/05 06:45:47;;;;;;;15.52;1.60;;;3.80;99.90;;;;;;5100374;28;20036;-78
2022/01/05 06:48:12;;;;;;;7.15;1.33;;;3.70;99.90;;;;;;5097195;28;20036;-78
2022/01/05 06:50:38;;;;;;;8.18;2.47;;;3.70;99.90;;;;;;5094673;28;20145;-82
2022/01/05 06:53:03;;;;;;;7.07;1.75;;;3.80;99.90;;;;;;5081019;28;20054;-80
2022/01/05 06:55:29;;;;;;;12.48;2.38;;;3.80;99.90;;;;;;5057939;28;20079;-77
2022/01/05 06:57:55;;;;;;;12.27;2.85;;;3.80;99.90;;;;;;5073223;28;20035;-76
2022/01/05 07:00:22;;;;;;;14.43;3.28;;;3.90;99.90;;;;;;5079513;28;20052;-81
2022/01/05 07:02:48;;;;;;;16.13;2.65;;;4.00;99.90;;;;;;5086898;28;20055;-81
2022/01/05 07:05:13;;;;;;;19.27;3.85;;;3.90;99.90;;;;;;5075585;28;20047;-76
2022/01/05 07:07:39;;;;;;;13.45;3.33;;;4.00;99.90;;;;;;5092090;28;20063;-83
2022/01/05 07:10:06;;;;;;;25.48;3.70;;;4.10;99.90;;;;;;5073461;28;20044;-81
2022/01/05 07:12:32;;;;;;;20.25;4.13;;;4.20;99.90;;;;;;5091275;28;20169;-83
2022/01/05 07:14:58;;;;;;;17.20;2.90;;;4.20;99.90;;;;;;5090522;28;20162;-82
2022/01/05 07:17:24;;;;;;;16.33;2.28;;;4.30;99.90;;;;;;5092402;28;20510;-82
2022/01/05 07:19:49;;;;;;;14.63;2.50;;;4.40;99.90;;;;;;5092640;28;20040;-82
2022/01/05 07:22:15;;;;;;;23.77;4.63;;;4.30;99.90;;;;;;5091897;28;20046;-81
2022/01/05 07:24:41;;;;;;;12.60;2.00;;;4.50;99.90;;;;;;5057088;28;20055;-82
2022/01/05 07:27:07;;;;;;;22.23;4.18;;;4.60;99.90;;;;;;5072333;28;20044;-82
2022/01/05 07:29:32;;;;;;;15.93;4.13;;;4.50;99.90;;;;;;5070982;28;20040;-83
2022/01/05 07:31:58;;;;;;;16.23;2.75;;;4.50;99.90;;;;;;5072411;28;20123;-81
2022/01/05 07:34:24;;;;;;;16.33;4.05;;;4.60;99.90;;;;;;5071766;28;20041;-84
2022/01/05 07:36:49;;;;;;;18.48;5.63;;;4.60;99.90;;;;;;5072352;28;20050;-82
2022/01/05 07:39:15;;;;;;;8.43;1.60;;;4.60;99.90;;;;;;5053907;28;20469;-82
2022/01/05 07:41:40;;;;;;;20.17;4.75;;;4.70;99.90;;;;;;5069750;28;20060;-82
2022/01/05 07:44:07;;;;;;;20.35;3.97;;;4.60;99.90;;;;;;5072712;28;20497;-82
2022/01/05 07:46:33;;;;;;;24.02;3.40;;;4.70;99.90;;;;;;5091825;28;20123;-81
2022/01/05 07:48:59;;;;;;;26.52;6.07;;;4.70;99.90;;;;;;5091986;28;20044;-81
2022/01/05 07:51:24;;;;;;;18.15;3.83;;;4.70;99.90;;;;;;5091757;28;20040;-82
2022/01/05 07:53:50;;;;;;;14.18;2.90;;;4.80;99.90;;;;;;5083924;28;20044;-83
2022/01/05 07:56:16;;;;;;;4.45;1.38;;;4.80;99.90;;;;;;5091716;28;20128;-81
2022/01/05 07:58:42;;;;;;;4.80;1.20;;;4.70;99.90;;;;;;5091142;28;20498;-83
2022/01/05 08:01:07;;;;;;;10.50;2.30;;;4.60;99.90;;;;;;5091712;28;20101;-82
2022/01/05 08:03:33;;;;;;;14.55;2.40;;;4.70;99.90;;;;;;5078570;28;20504;-82
2022/01/05 08:06:03;;;;;;;11.02;3.65;;;4.80;99.90;;;;;;5086485;28;20044;-81
2022/01/05 08:08:29;;;;;;;8.55;1.95;;;4.90;99.90;;;;;;5057218;28;20133;-82
2022/01/05 08:10:56;;;;;;;20.80;2.92;;;4.80;99.90;;;;;;5065010;28;20516;-82
2022/01/05 08:13:25;;;;;;;17.45;3.88;;;4.90;99.90;;;;;;5070038;28;20055;-82
2022/01/05 08:15:51;;;;;;;14.53;2.90;;;5.00;99.90;;;;;;5071213;28;20122;-83
2022/01/05 08:18:18;;;;;;;15.10;4.00;;;5.10;99.90;;;;;;5053072;28;20287;-81
2022/01/05 08:20:44;;;;;;;22.02;4.07;;;5.10;99.90;;;;;;5052522;28;20140;-77
2022/01/05 08:23:10;;;;;;;22.95;4.97;;;5.20;99.90;;;;;;5076883;28;20114;-82
2022/01/05 08:25:36;;;;;;;13.75;3.50;;;5.30;99.90;;;;;;5048554;28;20111;-82
2022/01/05 08:28:02;;;;;;;17.98;2.47;;;5.20;99.90;;;;;;5086276;28;20043;-81
2022/01/05 08:30:32;;;;;;;7.95;3.35;;;5.10;99.90;;;;;;5085589;28;20043;-84
2022/01/05 08:32:57;;;;;;;15.32;2.72;;;5.10;99.90;;;;;;5077770;28;20044;-83
2022/01/05 08:35:24;;;;;;;9.82;1.65;;;5.10;99.90;;;;;;5054274;28;20037;-82
2022/01/05 08:37:51;;;;;;;3.85;1.45;;;5.10;99.90;;;;;;5054548;28;20114;-82
2022/01/05 08:40:20;;;;;;;18.17;3.70;;;5.20;99.90;;;;;;5053886;28;20057;-84
2022/01/05 08:42:47;;;;;;;9.00;1.73;;;5.10;99.90;;;;;;5070823;28;20127;-82
2022/01/05 08:45:14;;;;;;;21.60;3.45;;;5.10;99.90;;;;;;5071394;28;20395;-83
2022/01/05 08:47:40;;;;;;;16.40;3.17;;;5.20;99.90;;;;;;5063830;28;20048;-81
2022/01/05 08:50:06;;;;;;;12.43;3.03;;;5.30;99.90;;;;;;5079481;28;20085;-84
2022/01/05 08:52:32;;;;;;;18.02;3.08;;;5.30;99.90;;;;;;5052918;28;20079;-81
2022/01/05 08:54:58;;;;;;;11.82;2.90;;;5.30;99.90;;;;;;5089713;28;20067;-82
2022/01/05 08:57:24;;;;;;;22.17;3.83;;;5.40;99.90;;;;;;5078438;28;20456;-80
2022/01/05 08:59:51;;;;;;;17.65;3.15;;;5.40;99.90;;;;;;5073510;28;20130;-80
2022/01/05 09:02:18;;;;;;;21.33;5.32;;;5.40;99.90;;;;;;5069517;28;20427;-80
2022/01/05 09:04:43;;;;;;;21.05;3.08;;;5.50;99.90;;;;;;5091657;28;20059;-75
2022/01/05 09:07:10;;;;;;;25.52;3.65;;;5.50;99.90;;;;;;5081120;28;20478;-80
2022/01/05 09:09:36;;;;;;;12.50;3.40;;;5.50;99.90;;;;;;5070699;28;20086;-80
2022/01/05 09:12:02;;;;;;;13.93;3.25;;;5.60;99.90;;;;;;5072669;28;20574;-79
2022/01/05 09:14:28;;;;;;;24.38;6.15;;;5.50;99.90;;;;;;5089574;28;20165;-82
2022/01/05 09:16:54;;;;;;;20.67;3.63;;;5.60;99.90;;;;;;5090919;28;20048;-81
2022/01/05 09:19:19;;;;;;;18.63;3.67;;;5.60;99.90;;;;;;5091069;28;20043;-84
2022/01/05 09:21:48;;;;;;;15.98;4.68;;;5.50;99.90;;;;;;5090575;28;20508;-75
2022/01/05 09:24:15;;;;;;;21.27;5.45;;;5.60;99.90;;;;;;5090301;28;20050;-83
2022/01/05 09:26:41;;;;;;;24.77;5.75;;;5.70;99.90;;;;;;5083506;28;20503;-81
2022/01/05 09:29:06;;;;;;;24.63;5.28;;;5.80;99.90;;;;;;5085704;28;20093;-83
2022/01/05 09:31:33;;;;;;;29.40;5.57;;;5.90;99.90;;;;;;5077651;28;20052;-83
2022/01/05 09:33:59;;;;;;;41.33;6.30;;;6.00;99.90;;;;;;5084540;28;20036;-82
2022/01/05 09:36:33;;;;;;;30.35;6.10;;;6.00;99.90;;;;;;5068656;28;20547;-84
2022/01/05 09:41:56;;;;;;;28.17;6.18;;;6.00;99.90;;;;;;5080627;28;20052;-85
2022/01/05 09:44:38;;;;;;;36.42;9.00;;;6.00;99.90;;;;;;5087955;28;20087;-82
2022/01/05 09:47:23;;;;;;;30.73;7.13;;;6.00;99.90;;;;;;5057191;28;21079;-83
2022/01/05 09:49:53;;;;;;;24.27;6.55;;;6.10;99.90;;;;;;5075930;28;20446;-85
2022/01/05 09:52:19;;;;;;;24.77;5.82;;;6.10;99.90;;;;;;5094997;28;20109;-86
2022/01/05 09:54:45;;;;;;;52.95;8.63;;;6.10;99.90;;;;;;5073884;28;20490;-82
2022/01/05 09:57:14;;;;;;;23.98;5.25;;;6.20;99.90;;;;;;5085766;28;20036;-84
2022/01/05 09:59:40;;;;;;;26.27;5.32;;;6.20;99.90;;;;;;5076593;28;20414;-85
2022/01/05 10:02:07;;;;;;;20.23;5.13;;;6.10;99.90;;;;;;5095340;28;20045;-85
2022/01/05 10:04:35;;;;;;;22.02;4.32;;;6.10;99.90;;;;;;5095725;28;20146;-85
2022/01/05 10:07:00;;;;;;;29.13;4.80;;;6.20;99.90;;;;;;5091909;28;20040;-85
2022/01/05 10:09:26;;;;;;;24.23;5.10;;;6.30;99.90;;;;;;5071381;28;20558;-84
2022/01/05 10:11:52;;;;;;;29.65;4.25;;;6.30;99.90;;;;;;5076309;28;20148;-84
2022/01/05 10:14:17;;;;;;;23.83;6.13;;;6.30;99.90;;;;;;5088708;28;20136;-85
2022/01/05 10:17:06;;;;;;;20.05;4.90;;;6.30;99.90;;;;;;5093291;28;20035;-85
2022/01/05 10:19:33;;;;;;;16.65;4.95;;;6.20;99.90;;;;;;5091766;28;20044;-85
2022/01/05 10:21:59;;;;;;;18.15;3.33;;;6.10;99.90;;;;;;5078563;28;20045;-74
2022/01/05 10:24:48;;;;;;;44.25;7.30;;;6.10;99.90;;;;;;5091637;28;20374;-84
2022/01/05 10:27:19;;;;;;;24.45;4.03;;;6.10;99.90;;;;;;5072802;28;20474;-76
2022/01/05 10:29:58;;;;;;;22.63;4.30;;;6.10;99.90;;;;;;5089024;28;20045;-82
2022/01/05 10:32:25;;;;;;;19.83;3.90;;;6.10;99.90;;;;;;5094377;28;20082;-83
2022/01/05 10:35:04;;;;;;;15.57;3.42;;;6.10;99.90;;;;;;5092906;28;20078;-85
2022/01/05 10:37:31;;;;;;;20.33;4.35;;;6.30;99.90;;;;;;5087530;28;20500;-82
2022/01/05 10:40:23;;;;;;;22.15;5.18;;;6.40;99.90;;;;;;5092291;28;20394;-83
2022/01/05 10:42:51;;;;;;;31.88;5.55;;;6.50;99.90;;;;;;5089291;28;20135;-84
2022/01/05 10:45:21;;;;;;;18.23;5.55;;;6.70;99.90;;;;;;5094218;28;20129;-85
2022/01/05 10:48:06;;;;;;;18.80;3.95;;;6.80;99.90;;;;;;5078392;28;20101;-84
2022/01/05 10:50:32;;;;;;;27.88;5.43;;;6.90;99.90;;;;;;5094380;28;20109;-83
2022/01/05 10:52:58;;;;;;;21.10;4.60;;;7.00;99.90;;;;;;5096902;28;20044;-83
2022/01/05 10:55:26;;;;;;;14.88;3.28;;;6.90;99.90;;;;;;5087802;28;20084;-83
2022/01/05 10:57:56;;;;;;;17.20;3.95;;;6.90;99.90;;;;;;5091274;28;20051;-83
2022/01/05 11:00:32;;;;;;;12.27;3.17;;;7.00;99.90;;;;;;5073239;28;20054;-80
2022/01/05 11:02:59;;;;;;;14.15;3.65;;;7.00;99.90;;;;;;5069814;28;20040;-85
2022/01/05 11:05:24;;;;;;;11.52;2.33;;;7.10;99.90;;;;;;5094680;28;20383;-84
2022/01/05 11:07:50;;;;;;;9.48;1.52;;;7.20;99.90;;;;;;5075874;28;20051;-85
2022/01/05 11:10:18;;;;;;;15.32;3.53;;;7.10;99.90;;;;;;5094825;28;20046;-85
2022/01/05 11:12:49;;;;;;;12.15;2.22;;;7.10;99.90;;;;;;5090872;28;20044;-83
2022/01/05 11:15:27;;;;;;;23.85;3.85;;;7.10;99.90;;;;;;5073179;28;20059;-85
2022/01/05 11:18:14;;;;;;;12.88;2.92;;;7.10;99.90;;;;;;5088525;28;20080;-84
2022/01/05 11:20:52;;;;;;;19.17;3.15;;;7.20;99.90;;;;;;5097181;28;20531;-84
2022/01/05 11:23:22;;;;;;;21.40;3.95;;;7.20;99.90;;;;;;5106561;28;20041;-84
2022/01/05 11:25:48;;;;;;;;;;;7.20;99.90;;;;;;5073518;28;20406;-86
2022/01/05 11:28:16;;;;;;;15.43;3.75;;;7.20;99.90;;;;;;5062529;28;20007;-81
2022/01/05 11:30:43;;;;;;;17.92;4.22;;;7.10;99.90;;;;;;5085043;28;20052;-82
2022/01/05 11:33:09;;;;;;;24.33;4.75;;;7.10;99.90;;;;;;5091127;28;20036;-80
2022/01/05 11:35:35;;;;;;;17.60;4.38;;;7.00;99.90;;;;;;5085296;28;20457;-79
2022/01/05 11:38:03;;;;;;;16.45;5.15;;;6.80;99.90;;;;;;5072686;28;20490;-79
2022/01/05 11:40:31;;;;;;;19.70;5.03;;;6.60;99.90;;;;;;5091349;28;20059;-79
2022/01/05 11:43:00;;;;;;;14.77;3.30;;;6.70;99.90;;;;;;5084285;28;20106;-81
2022/01/05 11:45:45;;;;;;;19.77;2.83;;;6.70;99.90;;;;;;5075532;28;20044;-80
2022/01/05 11:48:35;;;;;;;15.13;3.08;;;6.70;99.90;;;;;;5059311;28;20475;-80
2022/01/05 11:51:03;;;;;;;10.93;3.42;;;6.70;99.90;;;;;;5057336;28;20040;-80
2022/01/05 11:53:38;;;;;;;11.13;2.63;;;6.80;99.90;;;;;;5091618;28;20044;-80
2022/01/05 11:56:09;;;;;;;18.10;5.68;;;6.90;99.90;;;;;;5091558;28;20481;-79
2022/01/05 11:58:49;;;;;;;24.15;4.25;;;7.00;99.90;;;;;;5088775;28;20040;-78
2022/01/05 12:01:17;;;;;;;20.15;3.78;;;7.00;99.90;;;;;;5080854;28;20052;-78
2022/01/05 12:03:58;;;;;;;21.17;3.35;;;7.10;99.90;;;;;;5080769;28;20051;-78
2022/01/05 12:06:32;;;;;;;16.42;4.07;;;7.00;99.90;;;;;;5079410;28;20048;-80
2022/01/05 12:09:05;;;;;;;22.55;4.38;;;7.10;99.90;;;;;;5071742;28;20044;-81
2022/01/05 12:11:42;;;;;;;22.52;4.80;;;7.20;99.90;;;;;;5089464;28;20118;-81
2022/01/05 12:14:30;;;;;;;18.80;4.63;;;7.20;99.90;;;;;;5090839;28;20127;-78
2022/01/05 12:16:59;;;;;;;13.35;2.85;;;7.30;99.90;;;;;;5087404;28;20051;-79
2022/01/05 12:19:26;;;;;;;15.93;3.17;;;7.30;99.90;;;;;;5085642;28;20036;-80
2022/01/05 12:21:55;;;;;;;23.15;4.32;;;7.20;99.90;;;;;;5092606;28;20085;-77
2022/01/05 12:24:22;;;;;;;27.23;5.43;;;7.20;99.90;;;;;;5071982;28;20105;-79
2022/01/05 12:27:17;;;;;;;16.73;4.30;;;7.20;99.90;;;;;;5091894;28;20032;-79
2022/01/05 12:29:43;;;;;;;16.98;3.65;;;7.10;99.90;;;;;;5086112;28;20044;-79
2022/01/05 12:32:09;;;;;;;17.02;4.18;;;7.00;99.90;;;;;;5089719;28;20109;-79
2022/01/05 12:34:55;;;;;;;19.27;4.45;;;7.00;99.90;;;;;;5090988;28;20058;-80
2022/01/05 12:37:42;;;;;;;23.35;4.65;;;7.10;99.90;;;;;;5073471;28;20040;-80
2022/01/05 12:40:27;;;;;;;20.80;4.25;;;7.10;99.90;;;;;;5087646;28;20032;-74
2022/01/05 12:43:13;;;;;;;23.25;5.40;;;7.20;99.90;;;;;;5090230;28;20044;-76
2022/01/05 12:45:59;;;;;;;20.55;3.13;;;7.30;99.90;;;;;;5059649;28;20406;-79
2022/01/05 12:48:39;;;;;;;17.58;3.40;;;7.30;99.90;;;;;;5052878;28;20102;-77
2022/01/05 12:51:14;;;;;;;33.90;3.58;;;7.10;99.90;;;;;;5071047;28;20048;-77
2022/01/05 12:54:10;;;;;;;34.33;5.45;;;7.20;99.90;;;;;;5082133;28;20044;-77
2022/01/05 12:56:46;;;;;;;18.02;2.40;;;7.10;99.90;;;;;;5090544;28;20047;-78